Time;durP1;ratioP1;P1;durP2;ratioP2;P2;SDS_P1;SDS_P2;PMS_P1;PMS_P2;Temp;Humidity;BMP_temperature;BMP_pressure;BME280_temperature;BME280_humidity;BME280_pressure;Samples;Min_cycle;Max_cycle;Signal;HPM_P1;HPM_P2
2023/11/15 00:01:17;;;;;;;12.30;6.63;;;25.90;99.90;;;;;;5055465;28;20416;-54
2023/11/15 00:03:43;;;;;;;10.00;6.40;;;25.90;99.90;;;;;;5055569;28;20021;-54
2023/11/15 00:06:08;;;;;;;12.30;6.70;;;25.90;99.90;;;;;;5055720;28;20427;-54
2023/11/15 00:08:34;;;;;;;14.77;7.90;;;25.90;99.90;;;;;;5055436;28;20404;-54
2023/11/15 00:11:00;;;;;;;11.40;6.32;;;25.80;99.90;;;;;;5055344;28;20480;-54
2023/11/15 00:13:26;;;;;;;12.10;6.28;;;25.80;99.90;;;;;;5055401;28;20029;-54
2023/11/15 00:15:52;;;;;;;11.15;6.53;;;25.80;99.90;;;;;;5055356;28;20440;-54
2023/11/15 00:18:17;;;;;;;11.60;6.68;;;25.80;99.90;;;;;;5053744;28;20084;-54
2023/11/15 00:20:43;;;;;;;9.73;6.85;;;25.80;99.90;;;;;;5055373;28;20387;-55
2023/11/15 00:23:09;;;;;;;12.90;6.65;;;25.80;99.90;;;;;;5055280;28;20029;-56
2023/11/15 00:25:35;;;;;;;11.98;6.70;;;25.80;99.90;;;;;;5055102;28;20021;-56
2023/11/15 00:28:02;;;;;;;9.50;6.50;;;25.80;99.90;;;;;;5055016;28;20036;-55
2023/11/15 00:30:28;;;;;;;10.80;6.60;;;25.80;99.90;;;;;;5055092;28;20029;-55
2023/11/15 00:32:53;;;;;;;9.63;6.07;;;25.80;99.90;;;;;;5070268;28;20021;-55
2023/11/15 00:35:19;;;;;;;11.70;6.15;;;25.80;99.90;;;;;;5054921;28;20044;-55
2023/11/15 00:37:45;;;;;;;10.50;6.40;;;25.70;99.90;;;;;;5054722;28;20021;-54
2023/11/15 00:40:14;;;;;;;11.38;6.80;;;25.70;99.90;;;;;;5055037;28;20032;-54
2023/11/15 00:42:44;;;;;;;11.02;6.40;;;25.70;99.90;;;;;;5055161;28;20017;-54
2023/11/15 00:45:11;;;;;;;11.73;6.18;;;25.70;99.90;;;;;;5054802;28;20099;-54
2023/11/15 00:47:40;;;;;;;9.05;5.45;;;25.60;99.90;;;;;;5054576;28;20018;-53
2023/11/15 00:50:07;;;;;;;7.85;5.72;;;25.70;99.90;;;;;;5054158;28;20021;-53
2023/11/15 00:52:33;;;;;;;9.52;4.93;;;25.60;99.90;;;;;;5054718;28;20505;-54
2023/11/15 00:54:59;;;;;;;9.95;5.25;;;25.60;99.90;;;;;;5054557;28;20385;-54
2023/11/15 00:57:24;;;;;;;8.63;5.22;;;25.60;99.90;;;;;;5054395;28;20036;-54
2023/11/15 00:59:53;;;;;;;9.30;5.35;;;25.60;99.90;;;;;;5054447;28;20527;-54
2023/11/15 01:02:27;;;;;;;11.27;5.57;;;25.60;99.90;;;;;;5053653;28;20048;-55
2023/11/15 01:04:53;;;;;;;9.48;5.18;;;25.60;99.90;;;;;;5054288;28;20028;-54
2023/11/15 01:07:19;;;;;;;7.10;4.90;;;25.50;99.90;;;;;;5054386;28;20017;-55
2023/11/15 01:09:45;;;;;;;7.30;5.03;;;25.50;99.90;;;;;;5054497;28;20111;-55
2023/11/15 01:12:11;;;;;;;8.40;5.25;;;25.50;99.90;;;;;;5054111;28;20099;-55
2023/11/15 01:14:36;;;;;;;6.63;5.32;;;25.50;99.90;;;;;;5052965;28;20104;-56
2023/11/15 01:17:04;;;;;;;8.13;5.32;;;25.50;99.90;;;;;;5052636;28;20430;-56
2023/11/15 01:19:30;;;;;;;6.45;4.63;;;25.50;99.90;;;;;;5053998;28;20116;-56
2023/11/15 01:21:57;;;;;;;8.50;5.63;;;25.50;99.90;;;;;;5053922;28;20075;-56
2023/11/15 01:24:24;;;;;;;6.57;4.40;;;25.40;99.90;;;;;;5053748;28;20021;-56
2023/11/15 01:26:52;;;;;;;8.50;4.40;;;25.40;99.90;;;;;;5053838;28;20094;-56
2023/11/15 01:29:18;;;;;;;5.28;4.35;;;25.40;99.90;;;;;;5053846;28;20111;-56
2023/11/15 01:31:43;;;;;;;6.22;4.55;;;25.40;99.90;;;;;;5052700;28;20115;-56
2023/11/15 01:34:09;;;;;;;6.65;4.35;;;25.40;99.90;;;;;;5052447;28;20091;-56
2023/11/15 01:36:35;;;;;;;7.07;4.20;;;25.40;99.90;;;;;;5053775;28;20457;-56
2023/11/15 01:39:01;;;;;;;5.97;4.80;;;25.40;99.90;;;;;;5053628;28;20362;-56
2023/11/15 01:41:27;;;;;;;7.18;4.40;;;25.30;99.90;;;;;;5052381;28;20067;-55
2023/11/15 01:43:54;;;;;;;6.63;3.90;;;25.30;99.90;;;;;;5053711;28;20047;-55
2023/11/15 01:46:20;;;;;;;6.40;4.35;;;25.30;99.90;;;;;;5053572;28;20071;-56
2023/11/15 01:48:47;;;;;;;6.47;4.18;;;25.30;99.90;;;;;;5053572;28;20465;-55
2023/11/15 01:51:14;;;;;;;6.07;4.28;;;25.30;99.90;;;;;;5053351;28;20029;-56
2023/11/15 01:53:40;;;;;;;7.60;4.50;;;25.30;99.90;;;;;;5053463;28;20025;-56
2023/11/15 01:56:08;;;;;;;6.45;4.32;;;25.30;99.90;;;;;;5068639;28;20025;-55
2023/11/15 01:58:35;;;;;;;4.95;3.63;;;25.30;99.90;;;;;;5053289;28;20140;-56
2023/11/15 02:01:03;;;;;;;6.38;3.97;;;25.20;99.90;;;;;;5053845;28;20021;-56
2023/11/15 02:03:29;;;;;;;5.43;3.67;;;25.20;99.90;;;;;;5067845;28;20044;-56
2023/11/15 02:05:55;;;;;;;6.07;3.95;;;25.20;99.90;;;;;;5068614;28;20473;-55
2023/11/15 02:08:21;;;;;;;4.25;3.30;;;25.20;99.90;;;;;;5053347;28;20070;-56
2023/11/15 02:10:47;;;;;;;6.78;4.43;;;25.20;99.90;;;;;;5053288;28;20029;-55
2023/11/15 02:13:23;;;;;;;6.80;4.53;;;25.20;99.90;;;;;;5052977;28;20112;-55
2023/11/15 02:15:49;;;;;;;7.78;4.70;;;25.10;99.90;;;;;;5052956;28;20021;-55
2023/11/15 02:18:17;;;;;;;5.22;3.75;;;25.20;99.90;;;;;;5053026;28;20048;-56
2023/11/15 02:20:43;;;;;;;5.28;3.97;;;25.10;99.90;;;;;;5051599;28;20039;-55
2023/11/15 02:23:09;;;;;;;5.20;3.72;;;25.10;99.90;;;;;;5052895;28;20025;-55
2023/11/15 02:25:35;;;;;;;6.35;4.40;;;25.10;99.90;;;;;;5052870;28;20497;-55
2023/11/15 02:28:03;;;;;;;5.10;3.63;;;25.10;99.90;;;;;;5052762;28;20013;-56
2023/11/15 02:30:28;;;;;;;;;;;25.10;99.90;;;;;;5053101;28;20354;-56
2023/11/15 02:32:54;;;;;;;4.75;3.50;;;25.10;99.90;;;;;;5052627;28;19959;-55
2023/11/15 02:35:20;;;;;;;5.53;2.80;;;25.00;99.90;;;;;;5052927;28;20025;-56
2023/11/15 02:37:45;;;;;;;5.45;3.50;;;25.00;99.90;;;;;;5052958;28;20469;-55
2023/11/15 02:40:11;;;;;;;5.28;3.50;;;25.00;99.90;;;;;;5052418;28;20033;-55
2023/11/15 02:42:37;;;;;;;4.82;3.40;;;25.00;99.90;;;;;;5052439;28;20427;-55
2023/11/15 02:45:03;;;;;;;4.25;3.40;;;25.00;99.90;;;;;;5052304;28;20592;-55
2023/11/15 02:47:29;;;;;;;5.07;3.42;;;25.00;99.90;;;;;;5052711;28;20057;-55
2023/11/15 02:49:55;;;;;;;3.67;3.03;;;25.00;99.90;;;;;;5052441;28;20025;-55
2023/11/15 02:52:21;;;;;;;4.47;3.28;;;25.00;99.90;;;;;;5052625;28;20036;-55
2023/11/15 02:54:51;;;;;;;5.32;3.47;;;25.00;99.90;;;;;;5052493;28;20060;-55
2023/11/15 02:57:18;;;;;;;5.50;3.58;;;24.90;99.90;;;;;;5053061;28;20025;-55
2023/11/15 02:59:44;;;;;;;4.70;3.40;;;24.90;99.90;;;;;;5052291;28;20040;-55
2023/11/15 03:02:10;;;;;;;4.47;3.08;;;24.90;99.90;;;;;;5052789;28;20021;-55
2023/11/15 03:04:36;;;;;;;4.30;3.25;;;24.90;99.90;;;;;;5052268;28;20055;-55
2023/11/15 03:07:01;;;;;;;4.80;3.25;;;24.90;99.90;;;;;;5052115;28;20049;-55
2023/11/15 03:09:27;;;;;;;3.92;3.03;;;24.90;99.90;;;;;;5067636;28;20021;-55
2023/11/15 03:11:53;;;;;;;4.32;3.03;;;24.80;99.90;;;;;;5052137;28;20481;-55
2023/11/15 03:14:18;;;;;;;5.13;2.90;;;24.80;99.90;;;;;;5052295;28;20052;-55
2023/11/15 03:16:44;;;;;;;3.15;2.72;;;24.80;99.90;;;;;;5052033;28;20032;-55
2023/11/15 03:19:10;;;;;;;4.95;2.90;;;24.80;99.90;;;;;;5051904;28;20053;-56
2023/11/15 03:21:36;;;;;;;3.10;2.80;;;24.80;99.90;;;;;;5051967;28;20021;-55
2023/11/15 03:24:02;;;;;;;4.97;3.13;;;24.70;99.90;;;;;;5052101;28;20025;-55
2023/11/15 03:26:27;;;;;;;4.10;2.80;;;24.80;99.90;;;;;;5050796;28;20074;-55
2023/11/15 03:28:53;;;;;;;4.55;3.55;;;24.80;99.90;;;;;;5052061;28;20531;-55
2023/11/15 03:31:19;;;;;;;4.28;2.65;;;24.70;99.90;;;;;;5052171;28;20013;-56
2023/11/15 03:33:47;;;;;;;3.97;3.10;;;24.70;99.90;;;;;;5051894;28;20032;-55
2023/11/15 03:36:15;;;;;;;3.95;3.10;;;24.70;99.90;;;;;;5052009;28;20032;-56
2023/11/15 03:38:41;;;;;;;4.32;2.67;;;24.70;99.90;;;;;;5051882;28;20030;-55
2023/11/15 03:41:07;;;;;;;2.70;2.50;;;24.70;99.90;;;;;;5051913;28;20025;-55
2023/11/15 03:43:32;;;;;;;3.63;2.63;;;24.70;99.90;;;;;;5051873;28;20051;-55
2023/11/15 03:45:59;;;;;;;3.78;3.00;;;24.70;99.90;;;;;;5051831;28;20017;-55
2023/11/15 03:48:26;;;;;;;4.00;2.67;;;24.70;99.90;;;;;;5051755;28;20075;-56
2023/11/15 03:50:52;;;;;;;4.18;2.83;;;24.60;99.90;;;;;;5052014;28;20021;-55
2023/11/15 03:53:18;;;;;;;3.63;2.78;;;24.70;99.90;;;;;;5051795;28;20380;-55
2023/11/15 03:55:43;;;;;;;3.78;2.70;;;24.60;99.90;;;;;;5051731;28;20477;-55
2023/11/15 03:58:09;;;;;;;3.50;2.80;;;24.60;99.90;;;;;;5051585;28;20079;-55
2023/11/15 04:00:35;;;;;;;4.97;3.53;;;24.60;99.90;;;;;;5052127;28;20021;-55
2023/11/15 04:03:01;;;;;;;3.50;2.78;;;24.60;99.90;;;;;;5050399;28;20029;-55
2023/11/15 04:05:28;;;;;;;3.70;2.78;;;24.60;99.90;;;;;;5051720;28;20389;-55
2023/11/15 04:07:53;;;;;;;3.75;3.00;;;24.50;99.90;;;;;;5051876;28;20013;-55
2023/11/15 04:10:20;;;;;;;3.38;2.60;;;24.60;99.90;;;;;;5051562;28;20040;-55
2023/11/15 04:12:46;;;;;;;3.97;2.70;;;24.50;99.90;;;;;;5051554;28;20604;-55
2023/11/15 04:15:12;;;;;;;3.33;2.60;;;24.50;99.90;;;;;;5051532;28;20036;-55
2023/11/15 04:17:38;;;;;;;3.42;3.13;;;24.50;99.90;;;;;;5051421;28;20064;-55
2023/11/15 04:20:06;;;;;;;3.33;2.70;;;24.50;99.90;;;;;;5051435;28;20556;-55
2023/11/15 04:22:33;;;;;;;3.70;3.25;;;24.50;99.90;;;;;;5051596;28;20028;-55
2023/11/15 04:24:59;;;;;;;3.03;2.72;;;24.50;99.90;;;;;;5051404;28;20025;-55
2023/11/15 04:27:25;;;;;;;3.25;2.78;;;24.40;99.90;;;;;;5055412;28;20028;-55
2023/11/15 04:29:53;;;;;;;3.33;2.38;;;24.50;99.90;;;;;;5055050;28;20083;-55
2023/11/15 04:32:19;;;;;;;;;;;24.50;99.90;;;;;;5070610;28;20056;-55
2023/11/15 04:34:44;;;;;;;3.85;2.80;;;24.50;99.90;;;;;;5053671;28;19936;-55
2023/11/15 04:37:10;;;;;;;5.60;2.97;;;24.40;99.90;;;;;;5055031;28;20032;-55
2023/11/15 04:39:36;;;;;;;3.38;2.63;;;24.40;99.90;;;;;;5054701;28;20065;-55
2023/11/15 04:42:02;;;;;;;3.70;2.88;;;24.40;99.90;;;;;;5054829;28;20058;-56
2023/11/15 04:44:29;;;;;;;3.60;2.83;;;24.40;99.90;;;;;;5054817;28;20488;-55
2023/11/15 04:46:55;;;;;;;3.83;2.72;;;24.40;99.90;;;;;;5054927;28;20507;-55
2023/11/15 04:49:21;;;;;;;3.10;2.65;;;24.40;99.90;;;;;;5054468;28;20060;-55
2023/11/15 04:51:47;;;;;;;2.92;2.63;;;24.40;99.90;;;;;;5052522;28;20025;-55
2023/11/15 04:54:13;;;;;;;2.90;2.60;;;24.40;99.90;;;;;;5053522;28;20021;-57
2023/11/15 04:56:38;;;;;;;3.40;2.67;;;24.40;99.90;;;;;;5053619;28;20389;-55
2023/11/15 04:59:04;;;;;;;2.78;2.45;;;24.30;99.90;;;;;;5053199;28;20033;-55
2023/11/15 05:01:30;;;;;;;3.35;2.60;;;24.30;99.90;;;;;;5066951;28;20028;-55
2023/11/15 05:03:56;;;;;;;3.67;2.55;;;24.30;99.90;;;;;;5073503;28;20103;-56
2023/11/15 05:06:21;;;;;;;2.53;2.10;;;24.30;99.90;;;;;;5072918;28;20031;-55
2023/11/15 05:08:47;;;;;;;2.42;2.10;;;24.30;99.90;;;;;;5073491;28;20085;-55
2023/11/15 05:11:13;;;;;;;3.03;2.55;;;24.30;99.90;;;;;;5074283;28;20322;-56
2023/11/15 05:13:39;;;;;;;2.92;2.45;;;24.30;99.90;;;;;;5074276;28;20064;-55
2023/11/15 05:16:06;;;;;;;3.22;2.38;;;24.30;99.90;;;;;;5074185;28;20024;-55
2023/11/15 05:18:32;;;;;;;2.78;2.47;;;24.30;99.90;;;;;;5073839;28;20044;-55
2023/11/15 05:20:57;;;;;;;6.78;2.47;;;24.30;99.90;;;;;;5074331;28;20077;-55
2023/11/15 05:23:23;;;;;;;3.80;2.50;;;24.30;99.90;;;;;;5074069;28;20048;-55
2023/11/15 05:25:49;;;;;;;2.92;2.40;;;24.30;99.90;;;;;;5073943;28;20065;-55
2023/11/15 05:28:14;;;;;;;2.80;2.53;;;24.30;99.90;;;;;;5074018;28;20372;-55
2023/11/15 05:30:41;;;;;;;2.38;2.00;;;24.30;99.90;;;;;;5072581;28;20491;-55
2023/11/15 05:33:07;;;;;;;2.20;2.00;;;24.30;99.90;;;;;;5073806;28;20214;-55
2023/11/15 05:35:34;;;;;;;2.83;2.50;;;24.30;99.90;;;;;;5073840;28;20016;-55
2023/11/15 05:38:00;;;;;;;2.83;2.42;;;24.30;99.90;;;;;;5073579;28;20055;-54
2023/11/15 05:40:25;;;;;;;2.85;2.13;;;24.30;99.90;;;;;;5072557;28;20489;-55
2023/11/15 05:42:52;;;;;;;2.88;2.17;;;24.30;99.90;;;;;;5073581;28;20027;-54
2023/11/15 05:45:17;;;;;;;2.75;2.33;;;24.30;99.90;;;;;;5073327;28;20025;-54
2023/11/15 05:47:44;;;;;;;3.22;2.50;;;24.30;99.90;;;;;;5072404;28;20046;-55
2023/11/15 05:50:10;;;;;;;2.60;2.40;;;24.30;99.90;;;;;;5073390;28;20032;-55
2023/11/15 05:52:40;;;;;;;2.88;2.25;;;24.30;99.90;;;;;;5073344;28;20025;-55
2023/11/15 05:55:07;;;;;;;2.85;2.20;;;24.30;99.90;;;;;;5073402;28;20095;-55
2023/11/15 05:57:33;;;;;;;2.60;2.40;;;24.20;99.90;;;;;;5073211;28;20032;-56
2023/11/15 05:59:59;;;;;;;4.55;2.42;;;24.30;99.90;;;;;;5073651;28;20036;-55
2023/11/15 06:02:25;;;;;;;3.45;2.80;;;24.30;99.90;;;;;;5053170;28;20469;-55
2023/11/15 06:04:54;;;;;;;3.63;2.20;;;24.30;99.90;;;;;;5051374;28;20021;-55
2023/11/15 06:07:20;;;;;;;2.25;2.05;;;24.20;99.90;;;;;;5050938;28;20021;-55
2023/11/15 06:09:49;;;;;;;3.20;2.05;;;24.20;99.90;;;;;;5049764;28;20385;-56
2023/11/15 06:12:18;;;;;;;3.80;2.45;;;24.20;99.90;;;;;;5049523;28;20013;-55
2023/11/15 06:14:43;;;;;;;3.47;2.40;;;24.20;99.90;;;;;;5050865;28;20024;-55
2023/11/15 06:17:09;;;;;;;3.30;2.20;;;24.20;99.90;;;;;;5050650;28;20033;-55
2023/11/15 06:19:35;;;;;;;2.33;2.13;;;24.20;99.90;;;;;;5051523;28;20036;-55
2023/11/15 06:22:00;;;;;;;3.42;2.65;;;24.20;99.90;;;;;;5052916;28;20028;-55
2023/11/15 06:24:26;;;;;;;2.85;2.20;;;24.20;99.90;;;;;;5052761;28;20481;-55
2023/11/15 06:26:52;;;;;;;2.75;2.42;;;24.20;99.90;;;;;;5052788;28;20040;-55
2023/11/15 06:29:24;;;;;;;3.85;2.40;;;24.20;99.90;;;;;;5052804;28;20034;-55
2023/11/15 06:31:50;;;;;;;3.47;2.33;;;24.20;99.90;;;;;;5052648;28;20461;-55
2023/11/15 06:34:16;;;;;;;2.75;2.20;;;24.20;99.90;;;;;;5052458;28;20089;-55
2023/11/15 06:36:47;;;;;;;2.35;1.90;;;24.10;99.90;;;;;;5052646;28;20073;-55
2023/11/15 06:39:13;;;;;;;2.55;2.17;;;24.20;99.90;;;;;;5052593;28;20401;-55
2023/11/15 06:41:39;;;;;;;2.30;1.75;;;24.20;99.90;;;;;;5052528;28;20100;-55
2023/11/15 06:44:10;;;;;;;2.30;2.10;;;24.20;99.90;;;;;;5052470;28;20028;-55
2023/11/15 06:46:38;;;;;;;2.33;1.90;;;24.10;99.90;;;;;;5052376;28;20104;-55
2023/11/15 06:49:15;;;;;;;7.43;2.65;;;24.10;99.90;;;;;;5051965;28;20025;-55
2023/11/15 06:51:51;;;;;;;4.97;2.30;;;24.10;99.90;;;;;;5052396;28;20013;-55
2023/11/15 06:54:17;;;;;;;3.45;2.60;;;24.10;99.90;;;;;;5052330;28;20029;-55
2023/11/15 06:56:48;;;;;;;3.20;2.40;;;24.10;99.90;;;;;;5052191;28;20028;-55
2023/11/15 06:59:15;;;;;;;3.15;1.80;;;24.10;99.90;;;;;;5052040;28;20036;-55
2023/11/15 07:01:41;;;;;;;5.88;2.30;;;24.10;99.90;;;;;;5052142;28;20027;-55
2023/11/15 07:04:07;;;;;;;2.90;1.90;;;24.10;99.90;;;;;;5052174;28;20409;-54
2023/11/15 07:06:32;;;;;;;6.15;2.85;;;24.00;99.90;;;;;;5052334;28;20032;-55
2023/11/15 07:08:59;;;;;;;4.32;2.30;;;24.10;99.90;;;;;;5052172;28;20029;-55
2023/11/15 07:11:26;;;;;;;5.20;2.17;;;24.00;99.90;;;;;;5050862;28;20029;-55
2023/11/15 07:13:55;;;;;;;4.93;2.60;;;24.00;99.90;;;;;;5052095;28;20031;-55
2023/11/15 07:16:20;;;;;;;5.88;2.17;;;24.10;99.90;;;;;;5051930;28;20044;-54
2023/11/15 07:18:46;;;;;;;3.17;2.20;;;24.00;99.90;;;;;;5051749;28;20509;-55
2023/11/15 07:21:12;;;;;;;3.30;2.45;;;24.10;99.90;;;;;;5051766;28;20382;-54
2023/11/15 07:23:40;;;;;;;6.63;2.15;;;24.10;99.90;;;;;;5051824;28;20100;-55
2023/11/15 07:26:08;;;;;;;3.33;2.22;;;24.10;99.90;;;;;;5051914;28;20036;-55
2023/11/15 07:28:34;;;;;;;6.05;2.08;;;24.10;99.90;;;;;;5052001;28;20048;-55
2023/11/15 07:31:00;;;;;;;4.07;2.03;;;24.10;99.90;;;;;;5050658;28;20032;-55
2023/11/15 07:33:26;;;;;;;2.42;1.90;;;24.20;99.90;;;;;;5051779;28;20384;-55
2023/11/15 07:35:51;;;;;;;4.47;2.53;;;24.20;99.90;;;;;;5051631;28;20029;-56
2023/11/15 07:38:17;;;;;;;6.07;2.40;;;24.20;99.90;;;;;;5051686;28;20108;-55
2023/11/15 07:40:43;;;;;;;3.45;2.10;;;24.20;99.90;;;;;;5050395;28;20048;-55
2023/11/15 07:43:10;;;;;;;10.93;3.25;;;24.20;99.90;;;;;;5051659;28;20029;-55
2023/11/15 07:45:38;;;;;;;4.10;2.35;;;24.30;99.90;;;;;;5051685;28;20028;-54
2023/11/15 07:48:04;;;;;;;;;;;24.30;99.90;;;;;;5052191;28;20365;-54
2023/11/15 07:50:33;;;;;;;2.67;2.00;;;24.30;99.90;;;;;;5050361;28;19920;-54
2023/11/15 07:52:59;;;;;;;4.30;1.83;;;24.30;99.90;;;;;;5051574;28;20027;-54
2023/11/15 07:55:25;;;;;;;3.95;2.08;;;24.40;99.90;;;;;;5051450;28;20103;-54
2023/11/15 07:57:51;;;;;;;3.42;2.55;;;24.40;99.90;;;;;;5051335;28;20110;-53
2023/11/15 08:00:22;;;;;;;3.08;2.22;;;24.40;99.90;;;;;;5051970;28;20469;-54
2023/11/15 08:02:52;;;;;;;8.32;2.55;;;24.50;99.90;;;;;;5055342;28;20017;-54
2023/11/15 08:05:19;;;;;;;8.10;3.42;;;24.50;99.90;;;;;;5054149;28;20025;-55
2023/11/15 08:07:47;;;;;;;5.72;2.10;;;24.50;99.90;;;;;;5055298;28;20070;-54
2023/11/15 08:10:14;;;;;;;;;;;24.60;99.90;;;;;;5055660;28;20025;-55
2023/11/15 08:12:44;;;;;;;5.47;2.58;;;24.60;99.90;;;;;;5055325;28;19908;-55
2023/11/15 08:15:15;;;;;;;6.00;2.45;;;24.60;99.90;;;;;;5055160;28;20032;-56
2023/11/15 08:17:46;;;;;;;4.03;2.40;;;24.60;99.90;;;;;;5054910;28;20064;-55
2023/11/15 08:20:16;;;;;;;4.63;2.30;;;24.70;99.90;;;;;;5037212;28;20432;-56
2023/11/15 08:22:42;;;;;;;3.95;2.35;;;24.70;99.90;;;;;;5054966;28;20021;-55
2023/11/15 08:25:12;;;;;;;3.75;2.20;;;24.80;99.90;;;;;;5055158;28;20373;-56
2023/11/15 08:27:40;;;;;;;4.35;2.15;;;24.80;99.90;;;;;;5055264;28;20024;-55
2023/11/15 08:30:17;;;;;;;;;;;24.80;99.90;;;;;;5055643;28;20060;-55
2023/11/15 08:32:43;;;;;;;;;;;24.90;99.90;;;;;;5055299;28;19919;-56
2023/11/15 08:35:15;;;;;;;5.82;2.00;;;24.90;99.90;;;;;;5054836;28;19905;-56
2023/11/15 08:37:41;;;;;;;4.68;2.35;;;24.90;99.90;;;;;;5054775;28;20020;-56
2023/11/15 08:40:10;;;;;;;3.30;2.30;;;25.00;99.90;;;;;;5054804;28;20028;-56
2023/11/15 08:42:40;;;;;;;3.58;2.38;;;25.00;99.90;;;;;;5055256;28;20411;-55
2023/11/15 08:45:09;;;;;;;5.80;2.10;;;25.00;99.90;;;;;;5054935;28;20029;-56
2023/11/15 08:47:36;;;;;;;4.07;2.30;;;25.00;99.90;;;;;;5054781;28;20021;-55
2023/11/15 08:50:02;;;;;;;;;;;25.10;99.90;;;;;;5054951;28;20092;-55
2023/11/15 08:52:28;;;;;;;3.63;2.03;;;25.10;99.90;;;;;;5054394;28;19955;-54
2023/11/15 08:54:56;;;;;;;5.53;2.33;;;25.20;99.90;;;;;;5054372;28;20025;-55
2023/11/15 08:57:22;;;;;;;3.13;2.40;;;25.10;99.90;;;;;;5053168;28;20040;-55
2023/11/15 08:59:47;;;;;;;4.45;2.65;;;25.20;99.90;;;;;;5054240;28;20037;-55
2023/11/15 09:02:18;;;;;;;4.70;2.70;;;25.30;99.90;;;;;;5054162;28;20028;-55
2023/11/15 09:04:45;;;;;;;5.25;2.55;;;25.20;99.90;;;;;;5054229;28;20067;-55
2023/11/15 09:07:12;;;;;;;4.57;2.40;;;25.30;99.90;;;;;;5054155;28;20023;-55
2023/11/15 09:09:40;;;;;;;5.28;2.35;;;25.30;99.90;;;;;;5054440;28;20385;-55
2023/11/15 09:12:07;;;;;;;4.82;2.50;;;25.40;99.90;;;;;;5052755;28;20054;-55
2023/11/15 09:14:33;;;;;;;5.57;2.53;;;25.40;99.90;;;;;;5054144;28;20426;-55
2023/11/15 09:17:00;;;;;;;4.85;2.53;;;25.40;99.90;;;;;;5054097;28;20105;-55
2023/11/15 09:19:28;;;;;;;2.90;2.13;;;25.50;99.90;;;;;;5053941;28;20041;-55
2023/11/15 09:21:54;;;;;;;4.95;2.17;;;25.50;99.90;;;;;;5053909;28;20021;-55
2023/11/15 09:24:24;;;;;;;7.05;2.92;;;25.50;99.90;;;;;;5054031;28;20025;-56
2023/11/15 09:26:50;;;;;;;3.20;2.40;;;25.60;99.90;;;;;;5054004;28;20021;-55
2023/11/15 09:29:16;;;;;;;4.38;2.70;;;25.60;99.90;;;;;;5054049;28;20063;-55
2023/11/15 09:31:45;;;;;;;5.22;2.28;;;25.70;99.90;;;;;;5053825;28;20053;-55
2023/11/15 09:34:11;;;;;;;5.13;2.50;;;25.70;99.90;;;;;;5053845;28;20381;-55
2023/11/15 09:36:37;;;;;;;3.97;2.75;;;25.80;99.90;;;;;;5054100;28;20438;-55
2023/11/15 09:39:09;;;;;;;4.53;2.30;;;25.80;99.90;;;;;;5053720;28;20420;-56
2023/11/15 09:41:36;;;;;;;4.38;2.85;;;25.80;99.90;;;;;;5053601;28;20040;-56
2023/11/15 09:44:09;;;;;;;3.10;2.50;;;25.90;99.90;;;;;;5053748;28;20025;-56
2023/11/15 09:46:37;;;;;;;5.93;2.88;;;25.90;99.90;;;;;;5053560;28;20025;-56
2023/11/15 09:49:05;;;;;;;4.38;2.05;;;25.90;99.90;;;;;;5053522;28;20047;-56
2023/11/15 09:51:34;;;;;;;4.68;2.35;;;26.00;99.90;;;;;;5053598;28;20070;-56
2023/11/15 09:54:07;;;;;;;3.97;2.20;;;26.00;99.90;;;;;;5053411;28;20466;-56
2023/11/15 09:56:35;;;;;;;6.38;1.92;;;26.10;99.90;;;;;;5053406;28;20059;-56
2023/11/15 09:59:02;;;;;;;3.53;2.25;;;26.10;99.90;;;;;;5052117;28;20064;-56
2023/11/15 10:01:28;;;;;;;4.07;2.73;;;26.20;99.90;;;;;;5053307;28;20059;-56
2023/11/15 10:03:53;;;;;;;5.82;1.90;;;26.30;99.90;;;;;;5053283;28;20699;-56
2023/11/15 10:06:19;;;;;;;4.85;2.70;;;26.30;99.90;;;;;;5053205;28;20100;-56
2023/11/15 10:08:52;;;;;;;4.97;2.22;;;26.40;99.90;;;;;;5053020;28;20473;-56
2023/11/15 10:11:18;;;;;;;4.40;2.17;;;26.40;99.90;;;;;;5052995;28;20048;-56
2023/11/15 10:13:44;;;;;;;4.40;2.30;;;26.50;99.90;;;;;;5052138;28;20055;-55
2023/11/15 10:16:30;;;;;;;5.20;2.10;;;26.50;99.90;;;;;;5053199;28;20021;-56
2023/11/15 10:18:56;;;;;;;3.55;2.50;;;26.60;99.90;;;;;;5052724;28;20497;-56
2023/11/15 10:21:22;;;;;;;5.75;1.95;;;26.60;99.90;;;;;;5052983;28;20090;-56
2023/11/15 10:23:51;;;;;;;4.38;2.28;;;26.70;99.90;;;;;;5052135;28;20025;-56
2023/11/15 10:26:17;;;;;;;2.38;1.88;;;26.70;99.90;;;;;;5052735;28;20375;-55
2023/11/15 10:28:44;;;;;;;6.57;2.30;;;26.80;99.90;;;;;;5052863;28;20032;-56
2023/11/15 10:31:18;;;;;;;4.70;1.98;;;26.80;99.90;;;;;;5052686;28;20027;-56
2023/11/15 10:33:50;;;;;;;4.75;2.40;;;26.90;99.90;;;;;;5052563;28;20029;-55
2023/11/15 10:36:17;;;;;;;3.65;2.25;;;26.90;99.90;;;;;;5052620;28;20430;-56
2023/11/15 10:38:59;;;;;;;10.82;2.60;;;26.90;99.90;;;;;;5052444;28;20069;-56
2023/11/15 10:41:29;;;;;;;4.55;2.20;;;27.00;99.90;;;;;;5052448;28;20032;-56
2023/11/15 10:43:56;;;;;;;3.75;2.00;;;27.00;99.90;;;;;;5051131;28;20033;-56
2023/11/15 10:46:29;;;;;;;4.30;2.00;;;27.10;99.90;;;;;;5052368;28;20085;-56
2023/11/15 10:48:56;;;;;;;2.90;1.80;;;27.20;99.90;;;;;;5052370;28;20459;-56
2023/11/15 10:51:29;;;;;;;4.88;2.40;;;27.20;99.90;;;;;;5052452;28;20060;-56
2023/11/15 10:53:56;;;;;;;3.05;2.10;;;27.20;99.90;;;;;;5052361;28;20032;-56
2023/11/15 10:56:23;;;;;;;;;;;27.20;99.90;;;;;;5052597;28;20517;-55
2023/11/15 10:58:51;;;;;;;2.90;1.83;;;27.30;99.90;;;;;;5052083;28;19917;-56
2023/11/15 11:01:17;;;;;;;2.55;1.77;;;27.30;99.90;;;;;;5052284;28;20273;-56
2023/11/15 11:03:49;;;;;;;5.10;2.10;;;27.30;99.90;;;;;;5052323;28;20051;-56
2023/11/15 11:07:02;;;;;;;4.82;2.10;;;27.40;99.90;;;;;;5052118;28;20477;-56
2023/11/15 11:09:31;;;;;;;3.55;2.30;;;27.40;99.90;;;;;;5047532;28;20119;-56
2023/11/15 11:12:11;;;;;;;3.33;1.85;;;27.40;99.90;;;;;;5052047;28;20025;-57
2023/11/15 11:14:37;;;;;;;4.80;2.10;;;27.50;99.90;;;;;;5052130;28;20190;-56
2023/11/15 11:17:23;;;;;;;5.53;2.20;;;27.50;99.90;;;;;;5050737;28;20030;-56
2023/11/15 11:19:50;;;;;;;2.92;1.73;;;27.50;99.90;;;;;;5051963;28;20028;-56
2023/11/15 11:22:17;;;;;;;7.63;2.28;;;27.50;99.90;;;;;;5052030;28;20397;-56
2023/11/15 11:25:07;;;;;;;7.20;2.45;;;27.50;99.90;;;;;;5050658;28;20028;-58
2023/11/15 11:27:36;;;;;;;6.20;2.40;;;27.50;99.90;;;;;;5041783;28;20025;-55
2023/11/15 11:30:07;;;;;;;3.40;2.58;;;27.60;99.90;;;;;;5051965;28;20063;-56
2023/11/15 11:32:35;;;;;;;4.75;2.42;;;27.60;99.90;;;;;;5052133;28;20384;-56
2023/11/15 11:35:01;;;;;;;6.85;2.45;;;27.60;99.90;;;;;;5053873;28;20025;-56
2023/11/15 11:37:55;;;;;;;8.70;2.72;;;27.70;99.90;;;;;;5055954;28;20036;-56
2023/11/15 11:40:25;;;;;;;8.15;2.75;;;27.70;99.90;;;;;;5056163;28;20041;-57
2023/11/15 11:42:55;;;;;;;8.65;2.70;;;27.70;99.90;;;;;;5055749;28;20462;-55
2023/11/15 11:45:24;;;;;;;6.07;2.60;;;27.70;99.90;;;;;;5055733;28;20151;-55
2023/11/15 11:47:50;;;;;;;7.63;2.67;;;27.80;99.90;;;;;;5055715;28;20377;-56
2023/11/15 11:50:18;;;;;;;13.07;3.58;;;27.80;99.90;;;;;;5055490;28;20029;-55
2023/11/15 11:52:44;;;;;;;;;;;27.80;99.90;;;;;;5056169;28;20047;-55
2023/11/15 11:55:11;;;;;;;10.00;2.97;;;27.90;99.90;;;;;;5055503;28;20353;-56
2023/11/15 11:57:36;;;;;;;13.40;2.72;;;27.90;99.90;;;;;;5055715;28;20021;-55
2023/11/15 12:00:14;;;;;;;12.80;2.80;;;27.90;99.90;;;;;;5055775;28;20037;-54
2023/11/15 12:02:45;;;;;;;9.95;2.78;;;27.90;99.90;;;;;;5055532;28;20021;-54
2023/11/15 12:05:12;;;;;;;11.05;3.53;;;27.90;99.90;;;;;;5055452;28;20017;-54
2023/11/15 12:07:46;;;;;;;12.10;3.47;;;27.90;99.90;;;;;;5055519;28;20424;-54
2023/11/15 12:10:13;;;;;;;9.82;3.33;;;28.00;99.90;;;;;;5055381;28;20025;-55
2023/11/15 12:12:46;;;;;;;;;;;27.90;99.90;;;;;;5054745;28;20025;-55
2023/11/15 12:15:15;;;;;;;7.95;3.38;;;28.00;99.90;;;;;;5054037;28;20325;-54
2023/11/15 12:17:44;;;;;;;10.77;3.03;;;28.00;99.90;;;;;;5055202;28;20053;-53
2023/11/15 12:20:12;;;;;;;9.48;3.35;;;28.00;99.90;;;;;;5055094;28;20090;-54
2023/11/15 12:22:43;;;;;;;12.05;2.85;;;28.10;99.90;;;;;;5055049;28;20377;-56
2023/11/15 12:25:15;;;;;;;7.95;3.40;;;28.10;99.90;;;;;;5055141;28;20040;-56
2023/11/15 12:27:42;;;;;;;12.63;3.42;;;28.10;99.90;;;;;;5055006;28;20021;-54
2023/11/15 12:30:11;;;;;;;9.25;2.85;;;28.10;99.90;;;;;;5054962;28;20021;-54
2023/11/15 12:32:41;;;;;;;11.90;3.90;;;28.10;99.90;;;;;;5055108;28;20075;-55
2023/11/15 12:35:11;;;;;;;10.38;3.47;;;28.20;99.90;;;;;;5055157;28;20083;-56
2023/11/15 12:37:38;;;;;;;10.90;3.08;;;28.20;99.90;;;;;;5055151;28;20021;-55
2023/11/15 12:40:21;;;;;;;7.95;3.25;;;28.20;99.90;;;;;;5055056;28;20060;-55
2023/11/15 12:42:48;;;;;;;13.95;4.13;;;28.20;99.90;;;;;;5054874;28;20067;-56
2023/11/15 12:45:36;;;;;;;12.13;3.85;;;28.20;99.90;;;;;;5054742;28;20033;-55
2023/11/15 12:48:08;;;;;;;12.50;4.18;;;28.30;99.90;;;;;;5054143;28;20032;-56
2023/11/15 12:50:39;;;;;;;5.68;3.00;;;28.30;99.90;;;;;;5055025;28;20029;-55